sensor_id;sensor_type;location;lat;lon;timestamp;pressure;altitude;pressure_sealevel;temperature;humidity
20987;BME280;10652;50.306;8.570;2023-06-22T00:03:11;98024.72;;;19.02;88.64
20987;BME280;10652;50.306;8.570;2023-06-22T00:07:13;98038.72;;;19.04;88.92
20987;BME280;10652;50.306;8.570;2023-06-22T00:11:15;98061.47;;;19.08;88.89
20987;BME280;10652;50.306;8.570;2023-06-22T00:15:18;98081.31;;;19.26;88.18
20987;BME280;10652;50.306;8.570;2023-06-22T00:19:21;98093.13;;;19.45;88.04
20987;BME280;10652;50.306;8.570;2023-06-22T00:23:23;98097.47;;;19.57;87.11
20987;BME280;10652;50.306;8.570;2023-06-22T00:27:26;98116.59;;;19.62;85.88
20987;BME280;10652;50.306;8.570;2023-06-22T00:31:28;98136.69;;;19.66;85.26
20987;BME280;10652;50.306;8.570;2023-06-22T00:35:30;98152.41;;;19.69;85.90
20987;BME280;10652;50.306;8.570;2023-06-22T00:39:32;98164.00;;;19.79;85.03
20987;BME280;10652;50.306;8.570;2023-06-22T00:43:35;98161.81;;;19.84;84.23
20987;BME280;10652;50.306;8.570;2023-06-22T00:47:38;98165.44;;;19.83;83.44
20987;BME280;10652;50.306;8.570;2023-06-22T00:51:40;98165.44;;;19.83;83.98
20987;BME280;10652;50.306;8.570;2023-06-22T00:55:48;98161.28;;;19.90;83.51
20987;BME280;10652;50.306;8.570;2023-06-22T00:59:53;98170.50;;;19.86;83.07
20987;BME280;10652;50.306;8.570;2023-06-22T01:03:56;98187.47;;;19.85;83.90
20987;BME280;10652;50.306;8.570;2023-06-22T01:08:32;98194.28;;;19.89;84.28
20987;BME280;10652;50.306;8.570;2023-06-22T01:12:42;98209.09;;;19.93;84.85
20987;BME280;10652;50.306;8.570;2023-06-22T01:16:47;98216.09;;;19.94;86.14
20987;BME280;10652;50.306;8.570;2023-06-22T01:20:52;98229.19;;;19.97;86.98
20987;BME280;10652;50.306;8.570;2023-06-22T01:25:20;98252.34;;;19.97;88.25
20987;BME280;10652;50.306;8.570;2023-06-22T01:29:24;98252.59;;;19.94;88.80
20987;BME280;10652;50.306;8.570;2023-06-22T01:33:33;98231.84;;;19.86;89.78
20987;BME280;10652;50.306;8.570;2023-06-22T01:37:37;98200.00;;;19.73;90.69
20987;BME280;10652;50.306;8.570;2023-06-22T01:41:40;98165.25;;;19.21;94.34
20987;BME280;10652;50.306;8.570;2023-06-22T01:45:44;98147.44;;;18.88;98.02
20987;BME280;10652;50.306;8.570;2023-06-22T01:49:47;98124.69;;;18.73;100.00
20987;BME280;10652;50.306;8.570;2023-06-22T01:53:50;98129.41;;;18.69;100.00
20987;BME280;10652;50.306;8.570;2023-06-22T01:57:53;98131.97;;;18.71;100.00
20987;BME280;10652;50.306;8.570;2023-06-22T02:02:07;98124.81;;;18.71;100.00
20987;BME280;10652;50.306;8.570;2023-06-22T02:06:16;98139.44;;;18.77;100.00
20987;BME280;10652;50.306;8.570;2023-06-22T02:10:21;98164.63;;;18.84;100.00
20987;BME280;10652;50.306;8.570;2023-06-22T02:14:25;98162.44;;;18.89;100.00
20987;BME280;10652;50.306;8.570;2023-06-22T02:18:29;98152.50;;;18.91;100.00
20987;BME280;10652;50.306;8.570;2023-06-22T02:22:31;98122.38;;;18.91;100.00
20987;BME280;10652;50.306;8.570;2023-06-22T02:26:33;98079.69;;;18.70;100.00
20987;BME280;10652;50.306;8.570;2023-06-22T02:30:36;98082.59;;;18.45;100.00
20987;BME280;10652;50.306;8.570;2023-06-22T02:34:41;98106.53;;;18.33;100.00
20987;BME280;10652;50.306;8.570;2023-06-22T02:38:44;98123.13;;;18.48;100.00
20987;BME280;10652;50.306;8.570;2023-06-22T02:42:49;98122.53;;;18.67;100.00
20987;BME280;10652;50.306;8.570;2023-06-22T02:46:52;98117.19;;;18.78;100.00
20987;BME280;10652;50.306;8.570;2023-06-22T02:50:55;98140.53;;;18.85;100.00
20987;BME280;10652;50.306;8.570;2023-06-22T02:54:57;98141.59;;;18.94;100.00
20987;BME280;10652;50.306;8.570;2023-06-22T02:59:00;98108.22;;;18.90;100.00
20987;BME280;10652;50.306;8.570;2023-06-22T03:03:11;98088.16;;;18.64;100.00
20987;BME280;10652;50.306;8.570;2023-06-22T03:07:13;98096.88;;;18.44;100.00
20987;BME280;10652;50.306;8.570;2023-06-22T03:11:15;98107.50;;;18.32;100.00
20987;BME280;10652;50.306;8.570;2023-06-22T03:15:17;98097.03;;;18.18;100.00
20987;BME280;10652;50.306;8.570;2023-06-22T03:19:21;98086.19;;;18.21;100.00
20987;BME280;10652;50.306;8.570;2023-06-22T03:23:23;98083.03;;;18.27;100.00
20987;BME280;10652;50.306;8.570;2023-06-22T03:27:26;98077.97;;;18.35;100.00
20987;BME280;10652;50.306;8.570;2023-06-22T03:31:28;98069.97;;;18.24;100.00
20987;BME280;10652;50.306;8.570;2023-06-22T03:35:30;98073.59;;;18.23;100.00
20987;BME280;10652;50.306;8.570;2023-06-22T03:39:33;98072.91;;;18.32;100.00
20987;BME280;10652;50.306;8.570;2023-06-22T03:43:35;98073.78;;;18.44;100.00
20987;BME280;10652;50.306;8.570;2023-06-22T03:47:38;98070.50;;;18.52;100.00
20987;BME280;10652;50.306;8.570;2023-06-22T03:51:41;98065.66;;;18.57;100.00
20987;BME280;10652;50.306;8.570;2023-06-22T03:55:51;98057.91;;;18.65;100.00
20987;BME280;10652;50.306;8.570;2023-06-22T03:59:55;98067.72;;;18.64;100.00
20987;BME280;10652;50.306;8.570;2023-06-22T04:03:58;98067.13;;;18.61;100.00
20987;BME280;10652;50.306;8.570;2023-06-22T04:08:00;98072.78;;;18.67;100.00
20987;BME280;10652;50.306;8.570;2023-06-22T04:12:02;98083.31;;;18.80;100.00
20987;BME280;10652;50.306;8.570;2023-06-22T04:16:05;98082.59;;;18.89;100.00
20987;BME280;10652;50.306;8.570;2023-06-22T04:20:07;98085.09;;;18.91;100.00
20987;BME280;10652;50.306;8.570;2023-06-22T04:24:11;98078.19;;;18.99;100.00
20987;BME280;10652;50.306;8.570;2023-06-22T04:28:13;98081.69;;;19.11;100.00
20987;BME280;10652;50.306;8.570;2023-06-22T04:32:15;98076.50;;;19.20;100.00
20987;BME280;10652;50.306;8.570;2023-06-22T04:36:18;98084.44;;;19.32;100.00
20987;BME280;10652;50.306;8.570;2023-06-22T04:40:23;98078.50;;;19.39;100.00
20987;BME280;10652;50.306;8.570;2023-06-22T04:44:26;98089.03;;;19.41;100.00
20987;BME280;10652;50.306;8.570;2023-06-22T04:48:29;98097.00;;;19.52;100.00
20987;BME280;10652;50.306;8.570;2023-06-22T04:52:34;98095.75;;;19.56;100.00
20987;BME280;10652;50.306;8.570;2023-06-22T04:56:36;98098.69;;;19.53;100.00
20987;BME280;10652;50.306;8.570;2023-06-22T05:00:39;98099.31;;;19.45;100.00
20987;BME280;10652;50.306;8.570;2023-06-22T05:04:41;98094.34;;;19.41;100.00
20987;BME280;10652;50.306;8.570;2023-06-22T05:08:43;98092.16;;;19.46;100.00
20987;BME280;10652;50.306;8.570;2023-06-22T05:12:46;98091.84;;;19.71;100.00
20987;BME280;10652;50.306;8.570;2023-06-22T05:16:48;98077.25;;;20.07;100.00
20987;BME280;10652;50.306;8.570;2023-06-22T05:20:51;98082.22;;;20.42;100.00
20987;BME280;10652;50.306;8.570;2023-06-22T05:24:53;98076.53;;;20.86;100.00
20987;BME280;10652;50.306;8.570;2023-06-22T05:28:58;98084.16;;;21.50;97.54
20987;BME280;10652;50.306;8.570;2023-06-22T05:33:00;98089.16;;;22.86;92.42
20987;BME280;10652;50.306;8.570;2023-06-22T05:37:02;98087.16;;;22.98;82.16
20987;BME280;10652;50.306;8.570;2023-06-22T05:41:05;98083.38;;;22.44;80.07
20987;BME280;10652;50.306;8.570;2023-06-22T05:45:07;98081.88;;;22.13;81.65
20987;BME280;10652;50.306;8.570;2023-06-22T05:49:11;98075.78;;;22.40;82.73
20987;BME280;10652;50.306;8.570;2023-06-22T05:53:13;98070.09;;;22.62;81.21
20987;BME280;10652;50.306;8.570;2023-06-22T05:57:15;98064.47;;;22.55;80.40
20987;BME280;10652;50.306;8.570;2023-06-22T06:01:17;98069.81;;;22.55;80.98
20987;BME280;10652;50.306;8.570;2023-06-22T06:05:20;98066.19;;;23.74;81.29
20987;BME280;10652;50.306;8.570;2023-06-22T06:09:22;98065.28;;;27.29;68.35
20987;BME280;10652;50.306;8.570;2023-06-22T06:13:24;98068.50;;;29.34;51.18
20987;BME280;10652;50.306;8.570;2023-06-22T06:17:26;98065.22;;;29.74;51.02
20987;BME280;10652;50.306;8.570;2023-06-22T06:21:28;98071.16;;;30.89;47.06
20987;BME280;10652;50.306;8.570;2023-06-22T06:25:32;98068.94;;;31.40;45.53
20987;BME280;10652;50.306;8.570;2023-06-22T06:29:34;98068.56;;;31.57;43.47
20987;BME280;10652;50.306;8.570;2023-06-22T06:33:36;98074.78;;;31.37;45.13
20987;BME280;10652;50.306;8.570;2023-06-22T06:37:40;98065.06;;;31.76;44.70
20987;BME280;10652;50.306;8.570;2023-06-22T06:41:43;98059.69;;;32.02;42.98
20987;BME280;10652;50.306;8.570;2023-06-22T06:45:50;98068.25;;;31.99;43.07
20987;BME280;10652;50.306;8.570;2023-06-22T06:49:53;98061.16;;;32.51;42.80
20987;BME280;10652;50.306;8.570;2023-06-22T06:53:55;98058.69;;;32.23;43.12
20987;BME280;10652;50.306;8.570;2023-06-22T06:57:57;98044.00;;;32.57;43.38
20987;BME280;10652;50.306;8.570;2023-06-22T07:02:00;98043.81;;;32.32;42.33
20987;BME280;10652;50.306;8.570;2023-06-22T07:06:02;98045.06;;;32.69;42.51
20987;BME280;10652;50.306;8.570;2023-06-22T07:10:05;98042.75;;;32.00;43.16
20987;BME280;10652;50.306;8.570;2023-06-22T07:14:08;98043.56;;;32.07;42.85
20987;BME280;10652;50.306;8.570;2023-06-22T07:18:10;98044.41;;;31.81;43.91
20987;BME280;10652;50.306;8.570;2023-06-22T07:22:12;98033.28;;;31.02;44.90
20987;BME280;10652;50.306;8.570;2023-06-22T07:26:14;98035.59;;;28.86;50.08
20987;BME280;10652;50.306;8.570;2023-06-22T07:30:18;98039.50;;;27.57;54.49
20987;BME280;10652;50.306;8.570;2023-06-22T07:34:21;98036.38;;;26.67;59.29
20987;BME280;10652;50.306;8.570;2023-06-22T07:38:23;98034.47;;;26.13;64.03
20987;BME280;10652;50.306;8.570;2023-06-22T07:42:26;98027.06;;;25.82;64.76
20987;BME280;10652;50.306;8.570;2023-06-22T07:46:29;98036.50;;;25.86;65.36
20987;BME280;10652;50.306;8.570;2023-06-22T07:50:32;98032.28;;;25.84;67.11
20987;BME280;10652;50.306;8.570;2023-06-22T07:54:34;98011.44;;;25.62;67.69
20987;BME280;10652;50.306;8.570;2023-06-22T07:58:36;98008.41;;;25.57;66.21
20987;BME280;10652;50.306;8.570;2023-06-22T08:02:39;97997.56;;;25.24;69.79
20987;BME280;10652;50.306;8.570;2023-06-22T08:06:42;97992.69;;;25.12;69.43
20987;BME280;10652;50.306;8.570;2023-06-22T08:10:45;97986.25;;;25.05;70.18
20987;BME280;10652;50.306;8.570;2023-06-22T08:14:47;97995.19;;;25.21;69.30
20987;BME280;10652;50.306;8.570;2023-06-22T08:18:49;97986.97;;;25.23;69.57
20987;BME280;10652;50.306;8.570;2023-06-22T08:22:53;97986.50;;;25.43;68.89
20987;BME280;10652;50.306;8.570;2023-06-22T08:26:55;97988.03;;;25.54;63.83
20987;BME280;10652;50.306;8.570;2023-06-22T08:30:59;97981.34;;;25.66;62.50
20987;BME280;10652;50.306;8.570;2023-06-22T08:35:02;97969.69;;;25.82;63.92
20987;BME280;10652;50.306;8.570;2023-06-22T08:39:05;97975.72;;;26.00;62.04
20987;BME280;10652;50.306;8.570;2023-06-22T08:43:07;97975.41;;;25.95;59.41
20987;BME280;10652;50.306;8.570;2023-06-22T08:47:09;97971.03;;;26.02;61.19
20987;BME280;10652;50.306;8.570;2023-06-22T08:51:11;97959.25;;;26.11;60.34
20987;BME280;10652;50.306;8.570;2023-06-22T08:55:13;97956.38;;;26.13;60.24
20987;BME280;10652;50.306;8.570;2023-06-22T08:59:16;97952.31;;;26.17;59.67
20987;BME280;10652;50.306;8.570;2023-06-22T09:03:18;97953.78;;;26.36;60.52
20987;BME280;10652;50.306;8.570;2023-06-22T09:07:23;97964.53;;;26.52;58.55
20987;BME280;10652;50.306;8.570;2023-06-22T09:11:26;97945.09;;;26.25;58.37
20987;BME280;10652;50.306;8.570;2023-06-22T09:15:28;97943.19;;;26.34;60.13
20987;BME280;10652;50.306;8.570;2023-06-22T09:19:31;97945.41;;;26.22;59.60
20987;BME280;10652;50.306;8.570;2023-06-22T09:23:33;97948.09;;;26.22;59.80
20987;BME280;10652;50.306;8.570;2023-06-22T09:27:35;97934.16;;;26.58;58.43
20987;BME280;10652;50.306;8.570;2023-06-22T09:31:37;97928.16;;;26.87;57.44
20987;BME280;10652;50.306;8.570;2023-06-22T09:35:39;97916.91;;;27.29;57.75
20987;BME280;10652;50.306;8.570;2023-06-22T09:39:41;97916.41;;;27.71;54.62
20987;BME280;10652;50.306;8.570;2023-06-22T09:43:43;97923.00;;;27.68;53.22
20987;BME280;10652;50.306;8.570;2023-06-22T09:47:45;97921.00;;;27.25;54.85
20987;BME280;10652;50.306;8.570;2023-06-22T09:51:48;97911.41;;;27.45;56.11
20987;BME280;10652;50.306;8.570;2023-06-22T09:55:51;97907.75;;;27.75;55.35
20987;BME280;10652;50.306;8.570;2023-06-22T09:59:53;97909.22;;;28.00;54.46
20987;BME280;10652;50.306;8.570;2023-06-22T10:03:55;97899.25;;;28.45;53.53
20987;BME280;10652;50.306;8.570;2023-06-22T10:07:59;97897.53;;;28.44;53.31
20987;BME280;10652;50.306;8.570;2023-06-22T10:12:01;97883.03;;;28.45;53.75
20987;BME280;10652;50.306;8.570;2023-06-22T10:16:04;97882.13;;;28.74;52.05
20987;BME280;10652;50.306;8.570;2023-06-22T10:20:06;97873.50;;;28.49;52.37
20987;BME280;10652;50.306;8.570;2023-06-22T10:24:14;97866.38;;;27.97;53.47
20987;BME280;10652;50.306;8.570;2023-06-22T10:28:17;97858.78;;;27.78;53.30
20987;BME280;10652;50.306;8.570;2023-06-22T10:32:19;97852.38;;;27.79;54.40
20987;BME280;10652;50.306;8.570;2023-06-22T10:36:22;97842.53;;;28.01;53.12
20987;BME280;10652;50.306;8.570;2023-06-22T10:40:24;97848.72;;;28.31;53.77
20987;BME280;10652;50.306;8.570;2023-06-22T10:44:26;97841.16;;;28.56;52.02
20987;BME280;10652;50.306;8.570;2023-06-22T10:48:28;97830.31;;;28.70;50.99
20987;BME280;10652;50.306;8.570;2023-06-22T10:52:30;97821.28;;;28.63;50.40
20987;BME280;10652;50.306;8.570;2023-06-22T10:56:32;97807.97;;;28.62;50.09
20987;BME280;10652;50.306;8.570;2023-06-22T11:00:35;97793.47;;;28.69;50.71
20987;BME280;10652;50.306;8.570;2023-06-22T11:04:38;97791.16;;;28.87;49.54
20987;BME280;10652;50.306;8.570;2023-06-22T11:08:44;97787.56;;;29.02;48.37
20987;BME280;10652;50.306;8.570;2023-06-22T11:13:05;97774.16;;;29.15;48.14
20987;BME280;10652;50.306;8.570;2023-06-22T11:17:12;97772.75;;;29.25;46.01
20987;BME280;10652;50.306;8.570;2023-06-22T11:21:14;97753.94;;;29.11;46.31
20987;BME280;10652;50.306;8.570;2023-06-22T11:25:17;97753.69;;;29.33;42.68
20987;BME280;10652;50.306;8.570;2023-06-22T11:29:19;97752.84;;;29.33;42.71
20987;BME280;10652;50.306;8.570;2023-06-22T11:33:38;97746.50;;;29.47;44.36
20987;BME280;10652;50.306;8.570;2023-06-22T11:37:40;97732.41;;;29.58;43.52
20987;BME280;10652;50.306;8.570;2023-06-22T11:41:46;97728.13;;;29.70;44.14
20987;BME280;10652;50.306;8.570;2023-06-22T11:45:48;97719.34;;;29.68;44.32
20987;BME280;10652;50.306;8.570;2023-06-22T11:49:50;97718.50;;;29.68;45.13
20987;BME280;10652;50.306;8.570;2023-06-22T11:53:53;97724.41;;;29.85;45.19
20987;BME280;10652;50.306;8.570;2023-06-22T11:57:57;97717.88;;;30.13;44.22
20987;BME280;10652;50.306;8.570;2023-06-22T12:02:01;97722.50;;;30.26;43.65
20987;BME280;10652;50.306;8.570;2023-06-22T12:06:04;97704.19;;;30.41;43.70
20987;BME280;10652;50.306;8.570;2023-06-22T12:10:06;97709.66;;;30.61;43.08
20987;BME280;10652;50.306;8.570;2023-06-22T12:14:08;97699.25;;;30.78;42.95
20987;BME280;10652;50.306;8.570;2023-06-22T12:18:11;97696.75;;;30.83;43.41
20987;BME280;10652;50.306;8.570;2023-06-22T12:22:13;97700.94;;;30.66;42.94
20987;BME280;10652;50.306;8.570;2023-06-22T12:26:15;97691.25;;;30.37;44.00
20987;BME280;10652;50.306;8.570;2023-06-22T12:30:17;97690.19;;;30.31;44.83
20987;BME280;10652;50.306;8.570;2023-06-22T12:34:20;97690.41;;;30.36;44.19
20987;BME280;10652;50.306;8.570;2023-06-22T12:38:22;97688.13;;;30.33;44.22
20987;BME280;10652;50.306;8.570;2023-06-22T12:42:25;97676.44;;;30.39;44.14
20987;BME280;10652;50.306;8.570;2023-06-22T12:46:30;97684.41;;;30.47;43.93
20987;BME280;10652;50.306;8.570;2023-06-22T12:50:38;97684.19;;;30.42;44.30
20987;BME280;10652;50.306;8.570;2023-06-22T12:54:40;97675.84;;;30.50;44.12
20987;BME280;10652;50.306;8.570;2023-06-22T12:58:56;97665.81;;;30.57;44.49
20987;BME280;10652;50.306;8.570;2023-06-22T13:02:59;97662.72;;;30.60;44.06
20987;BME280;10652;50.306;8.570;2023-06-22T13:07:01;97645.22;;;30.63;44.07
20987;BME280;10652;50.306;8.570;2023-06-22T13:11:19;97641.47;;;30.71;44.12
20987;BME280;10652;50.306;8.570;2023-06-22T13:15:21;97633.72;;;30.87;44.08
20987;BME280;10652;50.306;8.570;2023-06-22T13:19:23;97627.88;;;30.97;43.17
20987;BME280;10652;50.306;8.570;2023-06-22T13:23:25;97624.69;;;31.13;43.75
20987;BME280;10652;50.306;8.570;2023-06-22T13:27:27;97621.38;;;31.24;43.55
20987;BME280;10652;50.306;8.570;2023-06-22T13:31:30;97608.00;;;31.23;43.34
20987;BME280;10652;50.306;8.570;2023-06-22T13:35:32;97593.97;;;31.32;43.78
20987;BME280;10652;50.306;8.570;2023-06-22T13:39:34;97588.16;;;31.22;43.62
20987;BME280;10652;50.306;8.570;2023-06-22T13:43:36;97581.50;;;31.12;43.76
20987;BME280;10652;50.306;8.570;2023-06-22T13:47:39;97576.50;;;31.15;43.90
20987;BME280;10652;50.306;8.570;2023-06-22T13:51:41;97571.06;;;31.08;43.54
20987;BME280;10652;50.306;8.570;2023-06-22T13:55:43;97567.09;;;31.11;43.50
20987;BME280;10652;50.306;8.570;2023-06-22T13:59:45;97561.06;;;31.16;43.16
20987;BME280;10652;50.306;8.570;2023-06-22T14:03:48;97563.47;;;31.30;43.02
20987;BME280;10652;50.306;8.570;2023-06-22T14:07:50;97564.31;;;31.37;42.27
20987;BME280;10652;50.306;8.570;2023-06-22T14:11:54;97542.22;;;31.27;42.78
20987;BME280;10652;50.306;8.570;2023-06-22T14:15:56;97528.06;;;31.05;42.46
20987;BME280;10652;50.306;8.570;2023-06-22T14:19:58;97527.09;;;30.80;42.79
20987;BME280;10652;50.306;8.570;2023-06-22T14:24:00;97535.25;;;30.60;43.03
20987;BME280;10652;50.306;8.570;2023-06-22T14:28:02;97530.06;;;30.52;43.48
20987;BME280;10652;50.306;8.570;2023-06-22T14:32:05;97514.88;;;30.38;44.30
20987;BME280;10652;50.306;8.570;2023-06-22T14:36:08;97513.59;;;30.21;44.92
20987;BME280;10652;50.306;8.570;2023-06-22T14:40:13;97517.97;;;30.09;45.21
20987;BME280;10652;50.306;8.570;2023-06-22T14:44:15;97500.66;;;29.97;46.08
20987;BME280;10652;50.306;8.570;2023-06-22T14:48:17;97502.72;;;29.82;46.25
20987;BME280;10652;50.306;8.570;2023-06-22T14:52:19;97486.91;;;29.65;47.00
20987;BME280;10652;50.306;8.570;2023-06-22T14:56:21;97475.38;;;29.50;47.58
20987;BME280;10652;50.306;8.570;2023-06-22T15:00:23;97477.22;;;29.37;47.87
20987;BME280;10652;50.306;8.570;2023-06-22T15:04:25;97470.13;;;29.29;48.44
20987;BME280;10652;50.306;8.570;2023-06-22T15:08:33;97473.84;;;29.21;48.47
20987;BME280;10652;50.306;8.570;2023-06-22T15:12:35;97471.75;;;29.10;48.82
20987;BME280;10652;50.306;8.570;2023-06-22T15:16:38;97466.28;;;29.04;48.83
20987;BME280;10652;50.306;8.570;2023-06-22T15:20:41;97472.69;;;28.96;49.24
20987;BME280;10652;50.306;8.570;2023-06-22T15:24:46;97479.13;;;28.88;48.51
20987;BME280;10652;50.306;8.570;2023-06-22T15:28:49;97473.66;;;28.75;48.04
20987;BME280;10652;50.306;8.570;2023-06-22T15:32:51;97473.38;;;28.64;48.00
20987;BME280;10652;50.306;8.570;2023-06-22T15:36:54;97499.25;;;28.45;49.63
20987;BME280;10652;50.306;8.570;2023-06-22T15:40:56;97538.88;;;28.10;53.11
20987;BME280;10652;50.306;8.570;2023-06-22T15:44:58;97564.38;;;27.14;61.64
20987;BME280;10652;50.306;8.570;2023-06-22T15:49:00;97553.44;;;25.97;59.51
20987;BME280;10652;50.306;8.570;2023-06-22T15:53:02;97494.78;;;25.16;62.51
20987;BME280;10652;50.306;8.570;2023-06-22T15:57:04;97464.38;;;24.38;64.19
20987;BME280;10652;50.306;8.570;2023-06-22T16:01:07;97444.31;;;23.85;68.03
20987;BME280;10652;50.306;8.570;2023-06-22T16:05:11;97459.91;;;23.98;72.79
20987;BME280;10652;50.306;8.570;2023-06-22T16:09:13;97440.09;;;23.99;69.47
20987;BME280;10652;50.306;8.570;2023-06-22T16:13:16;97465.94;;;24.00;68.75
20987;BME280;10652;50.306;8.570;2023-06-22T16:17:18;97529.66;;;23.90;69.79
20987;BME280;10652;50.306;8.570;2023-06-22T16:21:20;97691.97;;;23.78;74.22
20987;BME280;10652;50.306;8.570;2023-06-22T16:25:22;97778.88;;;22.64;95.66
20987;BME280;10652;50.306;8.570;2023-06-22T16:29:25;97641.69;;;21.19;100.00
20987;BME280;10652;50.306;8.570;2023-06-22T16:33:27;97633.00;;;20.80;100.00
20987;BME280;10652;50.306;8.570;2023-06-22T16:37:29;97578.47;;;20.82;100.00
20987;BME280;10652;50.306;8.570;2023-06-22T16:41:31;97592.66;;;20.83;100.00
20987;BME280;10652;50.306;8.570;2023-06-22T16:45:33;97613.69;;;20.95;100.00
20987;BME280;10652;50.306;8.570;2023-06-22T16:49:36;97593.41;;;21.02;100.00
20987;BME280;10652;50.306;8.570;2023-06-22T16:53:39;97576.38;;;21.03;99.60
20987;BME280;10652;50.306;8.570;2023-06-22T16:57:41;97556.41;;;21.08;96.15
20987;BME280;10652;50.306;8.570;2023-06-22T17:01:53;97544.72;;;21.09;93.46
20987;BME280;10652;50.306;8.570;2023-06-22T17:05:57;97549.78;;;21.12;93.39
20987;BME280;10652;50.306;8.570;2023-06-22T17:10:02;97568.47;;;21.12;93.40
20987;BME280;10652;50.306;8.570;2023-06-22T17:14:05;97560.06;;;21.07;93.30
20987;BME280;10652;50.306;8.570;2023-06-22T17:18:08;97560.81;;;20.99;91.81
20987;BME280;10652;50.306;8.570;2023-06-22T17:22:11;97560.16;;;20.87;93.00
20987;BME280;10652;50.306;8.570;2023-06-22T17:26:14;97550.88;;;20.91;94.24
20987;BME280;10652;50.306;8.570;2023-06-22T17:30:16;97550.28;;;20.97;95.82
20987;BME280;10652;50.306;8.570;2023-06-22T17:34:20;97549.09;;;21.10;96.62
20987;BME280;10652;50.306;8.570;2023-06-22T17:38:23;97538.09;;;21.13;94.98
20987;BME280;10652;50.306;8.570;2023-06-22T17:42:27;97520.25;;;21.31;93.64
20987;BME280;10652;50.306;8.570;2023-06-22T17:46:37;97511.72;;;21.45;93.30
20987;BME280;10652;50.306;8.570;2023-06-22T17:50:41;97511.19;;;21.59;92.44
20987;BME280;10652;50.306;8.570;2023-06-22T17:54:43;97507.59;;;21.68;93.32
20987;BME280;10652;50.306;8.570;2023-06-22T17:59:06;97499.13;;;21.73;93.28
20987;BME280;10652;50.306;8.570;2023-06-22T18:03:12;97509.81;;;21.73;95.32
20987;BME280;10652;50.306;8.570;2023-06-22T18:07:14;97509.50;;;21.76;95.61
20987;BME280;10652;50.306;8.570;2023-06-22T18:11:17;97505.81;;;21.77;96.70
20987;BME280;10652;50.306;8.570;2023-06-22T18:15:21;97509.34;;;21.77;97.20
20987;BME280;10652;50.306;8.570;2023-06-22T18:19:24;97501.31;;;21.77;96.25
20987;BME280;10652;50.306;8.570;2023-06-22T18:23:27;97482.53;;;21.69;95.75
20987;BME280;10652;50.306;8.570;2023-06-22T18:27:35;97480.38;;;21.47;98.21
20987;BME280;10652;50.306;8.570;2023-06-22T18:31:38;97481.03;;;21.49;99.99
20987;BME280;10652;50.306;8.570;2023-06-22T18:35:41;97500.81;;;21.56;100.00
20987;BME280;10652;50.306;8.570;2023-06-22T18:39:45;97480.28;;;21.57;100.00
20987;BME280;10652;50.306;8.570;2023-06-22T18:43:51;97485.63;;;21.57;100.00
20987;BME280;10652;50.306;8.570;2023-06-22T18:52:14;97486.53;;;21.30;100.00
20987;BME280;10652;50.306;8.570;2023-06-22T18:56:16;97498.25;;;21.01;100.00
20987;BME280;10652;50.306;8.570;2023-06-22T19:00:30;97497.59;;;20.90;100.00
20987;BME280;10652;50.306;8.570;2023-06-22T19:04:32;97491.81;;;20.94;100.00
20987;BME280;10652;50.306;8.570;2023-06-22T19:09:12;97483.91;;;21.02;100.00
20987;BME280;10652;50.306;8.570;2023-06-22T19:17:18;97470.53;;;20.85;100.00
20987;BME280;10652;50.306;8.570;2023-06-22T19:21:22;97460.47;;;20.69;100.00
20987;BME280;10652;50.306;8.570;2023-06-22T19:25:27;97454.25;;;20.51;100.00
20987;BME280;10652;50.306;8.570;2023-06-22T19:29:32;97442.38;;;20.36;100.00
20987;BME280;10652;50.306;8.570;2023-06-22T19:33:35;97439.03;;;20.34;100.00
20987;BME280;10652;50.306;8.570;2023-06-22T19:37:38;97441.06;;;20.12;100.00
20987;BME280;10652;50.306;8.570;2023-06-22T19:41:45;97434.28;;;19.71;100.00
20987;BME280;10652;50.306;8.570;2023-06-22T19:45:47;97452.31;;;19.41;100.00
20987;BME280;10652;50.306;8.570;2023-06-22T19:49:58;97481.19;;;19.36;100.00
20987;BME280;10652;50.306;8.570;2023-06-22T19:54:08;97491.69;;;19.47;100.00
20987;BME280;10652;50.306;8.570;2023-06-22T19:58:11;97486.94;;;19.60;100.00
20987;BME280;10652;50.306;8.570;2023-06-22T20:02:14;97498.97;;;19.64;100.00
20987;BME280;10652;50.306;8.570;2023-06-22T20:06:16;97507.53;;;19.67;100.00
20987;BME280;10652;50.306;8.570;2023-06-22T20:10:21;97497.28;;;19.63;100.00
20987;BME280;10652;50.306;8.570;2023-06-22T20:14:30;97499.81;;;19.64;100.00
20987;BME280;10652;50.306;8.570;2023-06-22T20:18:33;97506.56;;;19.59;100.00
20987;BME280;10652;50.306;8.570;2023-06-22T20:22:41;97486.09;;;19.50;100.00
20987;BME280;10652;50.306;8.570;2023-06-22T20:26:45;97488.63;;;19.51;100.00
20987;BME280;10652;50.306;8.570;2023-06-22T20:31:05;97486.06;;;19.59;100.00
20987;BME280;10652;50.306;8.570;2023-06-22T20:35:08;97491.69;;;19.66;100.00
20987;BME280;10652;50.306;8.570;2023-06-22T20:39:10;97501.09;;;19.70;100.00
20987;BME280;10652;50.306;8.570;2023-06-22T20:43:13;97518.34;;;19.66;100.00
20987;BME280;10652;50.306;8.570;2023-06-22T20:47:16;97521.44;;;19.61;100.00
20987;BME280;10652;50.306;8.570;2023-06-22T20:51:18;97504.19;;;19.65;100.00
20987;BME280;10652;50.306;8.570;2023-06-22T20:55:20;97502.06;;;19.69;100.00
20987;BME280;10652;50.306;8.570;2023-06-22T20:59:23;97509.34;;;19.67;100.00
20987;BME280;10652;50.306;8.570;2023-06-22T21:03:25;97514.13;;;19.63;100.00
20987;BME280;10652;50.306;8.570;2023-06-22T21:07:28;97526.91;;;19.60;100.00
20987;BME280;10652;50.306;8.570;2023-06-22T21:11:31;97545.97;;;19.65;100.00
20987;BME280;10652;50.306;8.570;2023-06-22T21:15:33;97547.91;;;19.72;100.00
20987;BME280;10652;50.306;8.570;2023-06-22T21:19:35;97547.25;;;19.80;100.00
20987;BME280;10652;50.306;8.570;2023-06-22T21:23:38;97555.91;;;19.92;100.00
20987;BME280;10652;50.306;8.570;2023-06-22T21:27:42;97555.38;;;19.98;100.00
20987;BME280;10652;50.306;8.570;2023-06-22T21:31:44;97568.00;;;20.05;100.00
20987;BME280;10652;50.306;8.570;2023-06-22T21:35:48;97568.72;;;20.07;100.00